Terminal Aerodrome Forecast
Issued by NWS

Home | Current Version | Previous Version | Text Only | Print | Product List | Glossary On
Versions: 1 2 3 4 5 6 7 8 9 10 11 12 13 14 15 16 17 18 19 20 21 22 23 24 25 26 27 28 29 30 31 32 33 34 35 36 37
000
FTUS45 KGJT 060138 AAA
TAFMTJ
TAF AMD
KMTJ 060138Z 0602/0624 15015KT P6SM VCTS SCT110CB BKN150
      TEMPO 0602/0604 VRB15G30KT 5SM TSRA BKN070CB
     FM060600 14005KT P6SM BKN120
     FM061400 VRB03KT P6SM FEW120 SCT250
     FM061900 34006KT P6SM SCT120=

USA.gov is the U.S. government's official web portal to all federal, state and local government web resources and services.